Joint Base Balad

Jump to: basic info | weather | frequencies | runways | comments

Related pages: nearby airports | nearby navaids | notams | map

Basic information (top)

Codes: XQC ORBD
Location: lon 33.940201, lat 44.361599, elev 161 ft / 49 m msl
Status: medium_airport
Scheduled airline service: no
Links: Wikipedia Mobile

Weather (top)

Current conditions for Al Taji Army Air Field 26nm (47km) SSW (rec'd 2011/08/15 06:55Z):

ORTI 150655Z 02012G16KT 9000 HZ CLR 37/11 A2969 RMK SLP051 WND DATA ESTMD ALSTG/SLP ESTMD PA +332 DA +2924

Airport forecast for Baghdad International Airport 41nm (76km) S (rec'd 2015/04/21 18:18Z):

TAF TAF ORBI 211600Z 2118/2218 14010KT 7000 NSC 
      BECMG 2121/2123 32010KT 5000 DU 
      TEMPO 2200/2209 32010G20KT 3000 BLDU

Frequencies (top)

Verify before use: may be inaccurate or out of date.

APP: 126.425 MHz (APP)
GND: 128.75 MHz (GND)
MISC: 126.75 MHz (SOF)
PMSV: 33.6 MHz (METRO)
POST: 33.19 MHz (COMD POST)
TWR: 119.875 MHz (TWR)

Runways (top)

12/30: 11,495 x 149 ft (3,504 x 45 m) — other (PEM) — not lighted

14/32: 11,490 x 197 ft (3,502 x 60 m) — paved — lighted

Latest comments (top)

No comments yet for Joint Base Balad

More... (top)

See also NOTAMs and nearby airports and navaids, or visit the Joint Base Balad page at the main OurAirports website..